CheckWX is a tool to help pilots better visualize weather data.  It is not intended as a substitute for an official pre-flight weather briefing.

20:47:39 UTC

KOFF METAR
Offutt AFB Airport
Omaha, Nebraska, USA
Current

52 mins ago

KOFF 201956Z 13015KT 10SM OVC250 17/07 A2970 RMK AO2A SLP057 RVRNO $
Observed
Nov-20 @ 19:56 UTC
Wind
  • 130° at 15 KTS
Visibility
10 SM
Flight Rules
VFR
Cloud Levels
  • Overcast at 25,000' AGL
Temperature
17°C / 63°F
Dewpoint
C / 45°F
Humidity
52%
Altimeter
29.7" Hg
Pressure
1005.72 hPa
Previous

2 hours ago

KOFF 201856Z AUTO 15015KT 10SM M M M RMK AO2 SLPNO RVRNO $
Observed
Nov-20 @ 18:56 UTC
Wind
  • 150° at 15 KTS
Visibility
10 SM
Previous

2 hours ago

KOFF 201856Z COR 15015KT 10SM OVC250 16/07 A2973 RMK AO2A SLP067 RVRNO $ COR 1908
Observed
Nov-20 @ 18:56 UTC
Wind
  • 150° at 15 KTS
Visibility
10 SM
Flight Rules
VFR
Cloud Levels
  • Overcast at 25,000' AGL
Temperature
16°C / 61°F
Dewpoint
C / 45°F
Humidity
55%
Altimeter
29.73" Hg
Pressure
1006.82 hPa